EGNS/IOM METAR and TAF weather

Enter ICAO airport designator
Station Type Date Time Source
EGNS METAR 2019/02/20 07:20 UTC NOAA

EGNS 200720Z 20019KT 9999 OVC009 09/08 Q1009 NOSIG


Station Type Date Time Source
EGNS Decoded METAR 2019/02/20 07:20 UTC NOAA

Isle Of Man / Ronaldsway Airport, United Kingdom (EGNS) 54-05N 004-38W 0M
Feb 20, 2019 - 02:20 AM EST / 2019.02.20 0720 UTC
Wind: from the SSW (200 degrees) at 22 MPH (19 KT):0
Visibility: greater than 7 mile(s):0
Sky conditions: overcast
Temperature: 48 F (9 C)
Dew Point: 46 F (8 C)
Relative Humidity: 93%
Pressure (altimeter): 29.80 in. Hg (1009 hPa)
ob: EGNS 200720Z 20019KT 9999 OVC009 09/08 Q1009 NOSIG
cycle: 7

Station Type Date Time Source
EGNS TAF 2019/01/16 05:00 UTC NOAA

TAF EGNS 160500 Z 1606/1615 28020KT 9999 FEW010 BKN025
TEMPO 1606/1609 6000 RA BKN010 PROB30
TEMPO 1613/1615 7000 -SHRA


Example: see airport list